createdAt,value
2023-04-29T00:02:24.028Z,4.98
2023-04-29T00:04:52.012Z,4.94
2023-04-29T00:07:19.339Z,4.87
2023-04-29T00:09:46.377Z,4.82
2023-04-29T00:12:15.040Z,4.85
2023-04-29T00:14:43.509Z,4.83
2023-04-29T00:17:10.701Z,4.78
2023-04-29T00:19:37.727Z,4.75
2023-04-29T00:22:04.710Z,4.76
2023-04-29T00:24:31.666Z,4.78
2023-04-29T00:26:58.637Z,4.79
2023-04-29T00:29:27.882Z,4.71
2023-04-29T00:31:54.821Z,4.64
2023-04-29T00:34:21.872Z,4.54
2023-04-29T00:36:49.265Z,4.46
2023-04-29T00:39:17.993Z,4.43
2023-04-29T00:41:44.992Z,4.31
2023-04-29T00:44:11.940Z,4.26
2023-04-29T00:46:40.473Z,4.28
2023-04-29T00:49:08.320Z,4.40
2023-04-29T00:51:36.644Z,4.47
2023-04-29T00:54:04.720Z,4.44
2023-04-29T00:56:34.414Z,4.32
2023-04-29T00:59:02.808Z,4.17
2023-04-29T01:01:29.890Z,4.10
2023-04-29T01:03:59.014Z,4.02
2023-04-29T01:06:31.313Z,4.02
2023-04-29T01:09:13.354Z,3.98
2023-04-29T01:11:48.837Z,3.99
2023-04-29T01:14:15.593Z,4.03
2023-04-29T01:16:45.521Z,4.04
2023-04-29T01:19:38.526Z,3.99
2023-04-29T01:22:05.960Z,3.97
2023-04-29T01:24:35.409Z,4.02
2023-04-29T01:27:11.482Z,3.98
2023-04-29T01:29:48.633Z,3.92
2023-04-29T01:32:23.497Z,3.93
2023-04-29T01:34:58.173Z,3.99
2023-04-29T01:37:34.928Z,4.06
2023-04-29T01:40:10.904Z,4.02
2023-04-29T01:42:46.072Z,4.00
2023-04-29T01:45:21.454Z,4.04
2023-04-29T01:47:49.341Z,4.03
2023-04-29T01:50:16.769Z,4.03
2023-04-29T01:52:44.089Z,4.03
2023-04-29T01:55:12.791Z,4.02
2023-04-29T01:58:08.797Z,3.98
2023-04-29T02:00:54.297Z,3.92
2023-04-29T02:03:21.676Z,3.84
2023-04-29T02:05:52.309Z,3.86
2023-04-29T02:08:19.348Z,3.88
2023-04-29T02:10:59.362Z,3.92
2023-04-29T02:13:44.532Z,3.85
2023-04-29T02:16:14.295Z,3.81
2023-04-29T02:18:51.013Z,3.71
2023-04-29T02:21:18.114Z,3.70
2023-04-29T02:23:45.307Z,3.59
2023-04-29T02:26:15.505Z,3.57
2023-04-29T02:28:42.696Z,3.64
2023-04-29T02:31:09.794Z,3.59
2023-04-29T02:33:36.772Z,3.54
2023-04-29T02:36:04.278Z,3.53
2023-04-29T02:38:31.259Z,3.52
2023-04-29T02:40:58.327Z,3.49
2023-04-29T02:43:26.769Z,3.49
2023-04-29T02:45:53.863Z,3.35
2023-04-29T02:48:21.077Z,3.36
2023-04-29T02:50:48.118Z,3.28
2023-04-29T02:53:15.269Z,3.29
2023-04-29T02:55:43.390Z,3.29
2023-04-29T02:58:10.610Z,3.25
2023-04-29T03:00:40.843Z,3.19
2023-04-29T03:03:08.174Z,3.16
2023-04-29T03:05:35.972Z,3.13
2023-04-29T03:08:04.224Z,3.04
2023-04-29T03:10:31.750Z,2.95
2023-04-29T03:12:59.038Z,2.96
2023-04-29T03:15:26.417Z,2.98
2023-04-29T03:17:55.113Z,3.00
2023-04-29T03:20:22.340Z,2.94
2023-04-29T03:22:49.459Z,2.92
2023-04-29T03:25:16.561Z,3.00
2023-04-29T03:27:43.624Z,2.99
2023-04-29T03:30:11.390Z,2.94
2023-04-29T03:32:44.953Z,2.91
2023-04-29T03:35:15.554Z,2.85
2023-04-29T03:38:01.815Z,2.87
2023-04-29T03:40:31.554Z,2.86
2023-04-29T03:43:00.873Z,2.85
2023-04-29T03:45:27.662Z,2.80
2023-04-29T03:47:54.971Z,2.79
2023-04-29T03:50:23.914Z,2.88
2023-04-29T03:52:50.959Z,2.90
2023-04-29T03:55:19.328Z,3.00
2023-04-29T03:57:47.430Z,3.03
2023-04-29T04:00:17.203Z,3.12
2023-04-29T04:02:46.882Z,3.23
2023-04-29T04:05:14.886Z,3.39
2023-04-29T04:07:48.762Z,3.49
2023-04-29T04:10:41.596Z,3.51
2023-04-29T04:13:19.707Z,3.62
2023-04-29T04:15:50.323Z,3.78
2023-04-29T04:18:17.487Z,3.89
2023-04-29T04:20:45.040Z,4.00
2023-04-29T04:23:13.466Z,4.07
2023-04-29T04:26:17.137Z,4.21
2023-04-29T04:29:22.690Z,4.41
2023-04-29T04:31:58.669Z,4.52
2023-04-29T04:34:26.391Z,4.60
2023-04-29T04:36:55.785Z,4.69
2023-04-29T04:39:22.955Z,4.76
2023-04-29T04:41:52.217Z,4.90
2023-04-29T04:44:20.127Z,5.00
2023-04-29T04:47:06.293Z,5.12
2023-04-29T04:49:45.381Z,5.28
2023-04-29T04:52:12.805Z,5.36
2023-04-29T04:54:39.878Z,5.49
2023-04-29T04:57:16.673Z,5.60
2023-04-29T04:59:44.692Z,5.77
2023-04-29T05:02:11.690Z,5.94
2023-04-29T05:04:38.695Z,6.11
2023-04-29T05:07:05.655Z,6.23
2023-04-29T05:09:47.376Z,6.30
2023-04-29T05:12:16.066Z,6.40
2023-04-29T05:14:42.974Z,6.58
2023-04-29T05:17:11.347Z,6.75
2023-04-29T05:19:38.448Z,6.88
2023-04-29T05:22:05.938Z,7.02
2023-04-29T05:24:32.981Z,7.17
2023-04-29T05:27:00.086Z,7.25
2023-04-29T05:29:28.546Z,7.34
2023-04-29T05:31:59.400Z,7.49
2023-04-29T05:34:26.470Z,7.59
2023-04-29T05:36:53.546Z,7.73
2023-04-29T05:39:20.829Z,7.84
2023-04-29T05:41:56.389Z,7.95
2023-04-29T05:44:35.255Z,8.08
2023-04-29T05:47:02.192Z,8.19
2023-04-29T05:49:30.523Z,8.24
2023-04-29T05:51:57.480Z,8.35
2023-04-29T05:54:24.621Z,8.51
2023-04-29T05:56:52.100Z,8.61
2023-04-29T05:59:19.089Z,8.75
2023-04-29T06:01:52.656Z,8.83
2023-04-29T06:04:20.012Z,8.90
2023-04-29T06:07:26.936Z,9.09
2023-04-29T06:09:58.924Z,9.30
2023-04-29T06:12:27.491Z,9.40
2023-04-29T06:14:54.566Z,9.52
2023-04-29T06:17:22.928Z,9.68
2023-04-29T06:19:49.918Z,9.76
2023-04-29T06:22:16.901Z,9.79
2023-04-29T06:24:52.802Z,9.96
2023-04-29T06:27:34.792Z,10.13
2023-04-29T06:30:02.161Z,10.26
2023-04-29T06:32:31.058Z,10.32
2023-04-29T06:34:57.875Z,10.43
2023-04-29T06:37:41.445Z,10.40
2023-04-29T06:40:19.742Z,10.50
2023-04-29T06:43:04.717Z,10.60
2023-04-29T06:46:02.108Z,10.75
2023-04-29T06:48:36.524Z,10.76
2023-04-29T06:51:04.538Z,10.74
2023-04-29T06:53:34.853Z,10.59
2023-04-29T06:56:01.873Z,10.64
2023-04-29T06:58:28.810Z,10.82
2023-04-29T07:00:55.917Z,11.07
2023-04-29T07:03:22.996Z,11.30
2023-04-29T07:05:52.225Z,11.53
2023-04-29T07:08:19.266Z,11.67
2023-04-29T07:10:54.139Z,11.77
2023-04-29T07:13:23.748Z,11.81
2023-04-29T07:15:51.247Z,11.98
2023-04-29T07:18:18.569Z,12.20
2023-04-29T07:20:46.398Z,12.34
2023-04-29T07:23:14.988Z,12.43
2023-04-29T07:25:42.081Z,12.60
2023-04-29T07:28:09.502Z,12.73
2023-04-29T07:30:36.586Z,12.71
2023-04-29T07:33:04.873Z,12.82
2023-04-29T07:35:33.279Z,12.98
2023-04-29T07:38:00.320Z,13.17
2023-04-29T07:40:28.749Z,13.41
2023-04-29T07:42:58.214Z,13.36
2023-04-29T07:45:25.173Z,13.56
2023-04-29T07:47:52.191Z,13.78
2023-04-29T07:50:19.212Z,13.99
2023-04-29T07:52:46.241Z,14.17
2023-04-29T07:55:16.749Z,14.30
2023-04-29T07:57:45.062Z,14.58
2023-04-29T08:00:12.799Z,14.76
2023-04-29T08:02:43.057Z,15.07
2023-04-29T08:05:13.252Z,15.40
2023-04-29T08:07:40.376Z,15.69
2023-04-29T08:10:08.618Z,15.97
2023-04-29T08:12:37.605Z,16.14
2023-04-29T08:15:09.074Z,16.37
2023-04-29T08:17:37.050Z,16.52
2023-04-29T08:20:05.095Z,16.72
2023-04-29T08:22:32.192Z,16.94
2023-04-29T08:24:59.152Z,17.04
2023-04-29T08:27:27.131Z,17.25
2023-04-29T08:29:54.021Z,17.44
2023-04-29T08:32:22.873Z,17.38
2023-04-29T08:34:49.796Z,17.55
2023-04-29T08:37:18.629Z,17.66
2023-04-29T08:39:47.909Z,17.76
2023-04-29T08:42:14.973Z,18.00
2023-04-29T08:44:42.488Z,18.17
2023-04-29T08:47:09.469Z,18.28
2023-04-29T08:49:38.411Z,18.25
2023-04-29T08:52:05.698Z,18.19
2023-04-29T08:54:33.115Z,18.41
2023-04-29T08:57:00.471Z,18.71
2023-04-29T08:59:28.907Z,18.86
2023-04-29T09:01:57.159Z,18.91
2023-04-29T09:04:31.378Z,19.11
2023-04-29T09:06:59.777Z,19.32
2023-04-29T09:09:26.763Z,19.32
2023-04-29T09:11:54.386Z,19.33
2023-04-29T09:14:24.056Z,19.35
2023-04-29T09:20:50.951Z,19.60
2023-04-29T09:23:19.378Z,19.63
2023-04-29T09:25:56.433Z,19.70
2023-04-29T09:28:24.248Z,19.66
2023-04-29T09:30:51.375Z,19.62
2023-04-29T09:33:18.533Z,19.51
2023-04-29T09:35:47.131Z,19.46
2023-04-29T09:38:15.109Z,19.38
2023-04-29T09:40:58.431Z,19.47
2023-04-29T09:43:27.196Z,19.58
2023-04-29T09:45:55.296Z,19.72
2023-04-29T09:48:23.053Z,19.72
2023-04-29T09:51:01.615Z,19.46
2023-04-29T09:53:29.844Z,19.65
2023-04-29T09:56:02.203Z,19.76
2023-04-29T09:58:31.530Z,19.88
2023-04-29T10:01:01.792Z,19.88
2023-04-29T10:03:32.976Z,19.89
2023-04-29T10:06:00.991Z,19.90
2023-04-29T10:08:28.194Z,19.93
2023-04-29T10:10:57.749Z,20.01
2023-04-29T10:13:27.072Z,20.07
2023-04-29T10:15:59.219Z,20.40
2023-04-29T10:18:31.316Z,20.79
2023-04-29T10:21:00.344Z,20.91
2023-04-29T10:23:46.193Z,21.29
2023-04-29T10:26:14.189Z,21.63
2023-04-29T10:28:42.273Z,21.80
2023-04-29T10:31:10.125Z,21.41
2023-04-29T10:33:37.608Z,21.32
2023-04-29T10:36:05.392Z,21.25
2023-04-29T10:38:40.858Z,21.25
2023-04-29T10:41:10.959Z,21.15
2023-04-29T10:43:38.176Z,21.04
2023-04-29T10:46:23.919Z,20.65
2023-04-29T10:48:55.500Z,20.56
2023-04-29T10:51:31.576Z,20.52
2023-04-29T10:54:00.925Z,20.50
2023-04-29T10:56:44.690Z,20.50
2023-04-29T10:59:13.325Z,20.35
2023-04-29T11:01:49.417Z,20.44
2023-04-29T11:04:17.509Z,20.50
2023-04-29T11:06:46.701Z,20.58
2023-04-29T11:09:16.116Z,20.51
2023-04-29T11:11:59.213Z,20.33
2023-04-29T11:14:27.549Z,20.25
2023-04-29T11:16:58.995Z,20.22
2023-04-29T11:19:31.223Z,20.26
2023-04-29T11:22:25.737Z,20.30
2023-04-29T11:24:54.742Z,20.21
2023-04-29T11:27:25.404Z,20.16
2023-04-29T11:29:58.133Z,20.04
2023-04-29T11:32:27.259Z,19.93
2023-04-29T11:34:54.628Z,19.79
2023-04-29T11:37:23.168Z,19.70
2023-04-29T11:39:50.593Z,19.48
2023-04-29T11:42:20.663Z,19.32
2023-04-29T11:44:47.641Z,19.25
2023-04-29T11:47:14.705Z,19.19
2023-04-29T11:49:43.370Z,19.05
2023-04-29T11:52:11.193Z,18.94
2023-04-29T11:54:38.116Z,18.89
2023-04-29T11:57:05.351Z,18.81
2023-04-29T11:59:34.796Z,18.70
2023-04-29T12:02:01.841Z,18.64
2023-04-29T12:04:29.016Z,18.50
2023-04-29T12:06:59.899Z,18.42
2023-04-29T12:09:26.963Z,18.41
2023-04-29T12:11:53.970Z,18.40
2023-04-29T12:14:21.040Z,18.37
2023-04-29T12:16:48.439Z,18.24
2023-04-29T12:19:16.007Z,17.99
2023-04-29T12:21:50.241Z,18.01
2023-04-29T12:24:21.474Z,17.94
2023-04-29T12:26:49.761Z,17.86
2023-04-29T12:29:16.902Z,17.79
2023-04-29T12:31:47.735Z,17.79
2023-04-29T12:34:14.911Z,17.76
2023-04-29T12:36:42.458Z,17.64
2023-04-29T12:39:11.204Z,17.68
2023-04-29T12:41:41.175Z,17.73
2023-04-29T12:44:08.788Z,17.74
2023-04-29T12:46:37.885Z,17.82
2023-04-29T12:49:05.464Z,17.87
2023-04-29T12:51:32.982Z,17.96
2023-04-29T12:54:01.281Z,17.97
2023-04-29T12:56:28.219Z,18.01
2023-04-29T12:58:56.617Z,18.14
2023-04-29T13:03:51.657Z,18.16
2023-04-29T13:06:18.995Z,18.17
2023-04-29T13:08:48.691Z,18.23
2023-04-29T13:11:15.729Z,18.31
2023-04-29T13:13:42.682Z,18.19
2023-04-29T13:16:11.501Z,18.18
2023-04-29T13:18:39.143Z,18.26
2023-04-29T13:21:06.290Z,18.22
2023-04-29T13:23:33.197Z,18.19
2023-04-29T13:26:00.178Z,18.29
2023-04-29T13:28:27.204Z,18.23
2023-04-29T13:30:54.488Z,17.97
2023-04-29T13:33:22.932Z,17.82
2023-04-29T13:35:50.080Z,17.90
2023-04-29T13:38:17.836Z,18.02
2023-04-29T13:40:46.675Z,18.09
2023-04-29T13:43:21.005Z,18.02
2023-04-29T13:45:56.387Z,17.94
2023-04-29T13:48:55.303Z,17.90
2023-04-29T13:51:34.577Z,17.95
2023-04-29T13:54:48.436Z,18.01
2023-04-29T14:04:35.993Z,18.12
2023-04-29T14:07:03.036Z,18.28
2023-04-29T14:09:30.041Z,18.63
2023-04-29T14:11:57.161Z,18.83
2023-04-29T14:14:24.453Z,19.16
2023-04-29T14:16:51.434Z,19.22
2023-04-29T14:19:18.414Z,19.23
2023-04-29T14:21:46.811Z,19.34
2023-04-29T14:24:13.789Z,19.46
2023-04-29T14:26:41.944Z,19.62
2023-04-29T14:29:09.040Z,19.66
2023-04-29T14:31:39.544Z,19.61
2023-04-29T14:34:06.621Z,19.65
2023-04-29T14:36:33.622Z,19.61
2023-04-29T14:39:02.096Z,19.46
2023-04-29T14:41:29.130Z,19.54
2023-04-29T14:43:56.213Z,19.53
2023-04-29T14:46:23.445Z,19.46
2023-04-29T14:48:50.514Z,19.40
2023-04-29T14:51:17.520Z,19.32
2023-04-29T14:53:44.579Z,19.36
2023-04-29T14:56:12.954Z,19.36
2023-04-29T14:58:40.148Z,19.31
2023-04-29T15:01:07.245Z,19.31
2023-04-29T15:03:42.850Z,19.31
2023-04-29T15:06:10.950Z,19.30
2023-04-29T15:08:38.490Z,19.31
2023-04-29T15:11:05.559Z,19.34
2023-04-29T15:13:34.075Z,19.03
2023-04-29T15:16:01.388Z,19.03
2023-04-29T15:18:28.354Z,19.01
2023-04-29T15:20:55.458Z,19.01
2023-04-29T15:23:22.376Z,19.01
2023-04-29T15:25:49.536Z,18.98
2023-04-29T15:28:16.535Z,18.85
2023-04-29T15:30:44.969Z,18.62
2023-04-29T15:33:12.127Z,18.04
2023-04-29T15:35:39.286Z,17.90
2023-04-29T15:38:25.788Z,17.71
2023-04-29T15:40:58.908Z,17.62
2023-04-29T15:43:26.532Z,17.56
2023-04-29T15:45:55.069Z,17.51
2023-04-29T15:48:22.085Z,17.44
2023-04-29T15:50:49.010Z,17.29
2023-04-29T15:53:16.067Z,17.22
2023-04-29T15:55:43.181Z,17.18
2023-04-29T15:58:10.143Z,17.17
2023-04-29T16:00:37.184Z,17.13
2023-04-29T16:03:05.718Z,17.13
2023-04-29T16:05:32.820Z,17.11
2023-04-29T16:07:59.824Z,17.07
2023-04-29T16:10:27.023Z,17.03
2023-04-29T16:12:54.018Z,16.96
2023-04-29T16:15:21.021Z,16.88
2023-04-29T16:17:48.039Z,16.80
2023-04-29T16:20:17.499Z,16.72
2023-04-29T16:22:44.524Z,16.66
2023-04-29T16:25:12.038Z,16.63
2023-04-29T16:27:39.114Z,16.61
2023-04-29T16:30:07.784Z,16.53
2023-04-29T16:32:34.880Z,16.46
2023-04-29T16:35:02.139Z,16.41
2023-04-29T16:37:30.666Z,16.36
2023-04-29T16:39:58.207Z,16.36
2023-04-29T16:42:25.201Z,16.35
2023-04-29T16:44:52.126Z,16.34
2023-04-29T16:47:20.459Z,16.22
2023-04-29T16:49:47.435Z,15.96
2023-04-29T16:52:14.527Z,15.87
2023-04-29T16:54:42.893Z,15.79
2023-04-29T16:57:09.871Z,15.75
2023-04-29T16:59:36.827Z,15.69
2023-04-29T17:02:04.019Z,15.71
2023-04-29T17:04:31.302Z,15.70
2023-04-29T17:06:58.859Z,15.61
2023-04-29T17:09:26.023Z,15.52
2023-04-29T17:12:13.307Z,15.40
2023-04-29T17:14:40.547Z,15.21
2023-04-29T17:17:07.667Z,15.03
2023-04-29T17:19:34.961Z,14.82
2023-04-29T17:22:01.976Z,14.63
2023-04-29T17:24:29.665Z,14.38
2023-04-29T17:26:59.578Z,14.23
2023-04-29T17:29:26.746Z,14.21
2023-04-29T17:32:00.017Z,14.25
2023-04-29T17:34:29.894Z,14.32
2023-04-29T17:36:56.895Z,14.32
2023-04-29T17:39:23.847Z,14.35
2023-04-29T17:41:50.840Z,14.31
2023-04-29T17:44:21.804Z,14.28
2023-04-29T17:46:50.250Z,14.33
2023-04-29T17:49:17.617Z,14.32
2023-04-29T17:51:44.643Z,14.23
2023-04-29T17:54:11.757Z,14.19
2023-04-29T17:56:38.731Z,14.09
2023-04-29T17:59:06.181Z,14.02
2023-04-29T18:01:34.710Z,13.88
2023-04-29T18:04:02.011Z,13.69
2023-04-29T18:06:30.371Z,13.48
2023-04-29T18:08:57.299Z,13.36
2023-04-29T18:11:25.222Z,13.29
2023-04-29T18:13:54.052Z,12.95
2023-04-29T18:16:21.274Z,12.75
2023-04-29T18:18:56.739Z,12.59
2023-04-29T18:21:24.568Z,12.32
2023-04-29T18:23:51.618Z,12.26
2023-04-29T18:26:18.644Z,12.22
2023-04-29T18:28:46.456Z,12.21
2023-04-29T18:31:13.531Z,12.13
2023-04-29T18:33:40.666Z,12.04
2023-04-29T18:36:09.253Z,12.03
2023-04-29T18:38:36.550Z,11.98
2023-04-29T18:41:03.598Z,11.97
2023-04-29T18:43:30.569Z,11.99
2023-04-29T18:45:58.544Z,12.08
2023-04-29T18:48:25.627Z,12.19
2023-04-29T18:50:52.915Z,12.27
2023-04-29T18:53:21.312Z,12.27
2023-04-29T18:55:48.145Z,12.35
2023-04-29T18:58:15.123Z,12.42
2023-04-29T19:00:42.188Z,12.38
2023-04-29T19:03:09.200Z,12.40
2023-04-29T19:05:36.231Z,12.37
2023-04-29T19:08:03.287Z,12.25
2023-04-29T19:10:31.637Z,12.23
2023-04-29T19:12:58.381Z,12.19
2023-04-29T19:15:27.970Z,12.11
2023-04-29T19:17:55.158Z,11.97
2023-04-29T19:20:22.189Z,11.89
2023-04-29T19:22:49.214Z,11.84
2023-04-29T19:25:16.515Z,11.81
2023-04-29T19:27:45.239Z,11.73
2023-04-29T19:30:13.197Z,11.67
2023-04-29T19:32:40.374Z,11.71
2023-04-29T19:35:07.827Z,11.70
2023-04-29T19:37:34.797Z,11.68
2023-04-29T19:40:01.755Z,11.66
2023-04-29T19:42:28.666Z,11.65
2023-04-29T19:44:57.042Z,11.73
2023-04-29T19:47:24.874Z,11.71
2023-04-29T19:49:52.108Z,11.73
2023-04-29T19:52:19.312Z,11.73
2023-04-29T19:54:46.263Z,11.70
2023-04-29T19:57:13.233Z,11.65
2023-04-29T19:59:40.164Z,11.65
2023-04-29T20:02:08.529Z,11.63
2023-04-29T20:04:35.517Z,11.63
2023-04-29T20:07:02.618Z,11.60
2023-04-29T20:09:29.708Z,11.69
2023-04-29T20:11:56.651Z,11.67
2023-04-29T20:14:23.641Z,11.53
2023-04-29T20:16:50.754Z,11.47
2023-04-29T20:19:19.464Z,11.44
2023-04-29T20:21:46.545Z,11.43
2023-04-29T20:24:13.547Z,11.35
2023-04-29T20:26:40.766Z,11.28
2023-04-29T20:29:07.756Z,11.33
2023-04-29T20:31:35.140Z,11.36
2023-04-29T20:34:02.149Z,11.25
2023-04-29T20:36:30.597Z,11.26
2023-04-29T20:38:57.475Z,11.30
2023-04-29T20:41:27.581Z,11.27
2023-04-29T20:43:55.150Z,11.24
2023-04-29T20:46:26.053Z,11.32
2023-04-29T20:48:53.140Z,11.31
2023-04-29T20:51:20.100Z,11.29
2023-04-29T20:53:49.054Z,11.32
2023-04-29T20:56:16.234Z,11.34
2023-04-29T20:58:43.196Z,11.43
2023-04-29T21:01:10.393Z,11.39
2023-04-29T21:03:38.198Z,11.31
2023-04-29T21:06:05.354Z,11.34
2023-04-29T21:08:32.300Z,11.43
2023-04-29T21:11:01.648Z,11.44
2023-04-29T21:13:28.616Z,11.48
2023-04-29T21:15:55.748Z,11.45
2023-04-29T21:18:22.805Z,11.40
2023-04-29T21:20:49.866Z,11.43
2023-04-29T21:23:17.055Z,11.41
2023-04-29T21:25:44.078Z,11.34
2023-04-29T21:28:12.880Z,11.26
2023-04-29T21:30:41.037Z,11.18
2023-04-29T21:33:08.089Z,11.14
2023-04-29T21:35:35.154Z,11.12
2023-04-29T21:38:02.250Z,11.10
2023-04-29T21:40:29.312Z,11.11
2023-04-29T21:42:57.606Z,10.99
2023-04-29T21:45:26.069Z,10.99
2023-04-29T21:47:53.305Z,10.98
2023-04-29T21:50:20.405Z,10.89
2023-04-29T21:52:47.416Z,10.77
2023-04-29T21:55:14.313Z,10.78
2023-04-29T21:57:44.825Z,10.82
2023-04-29T22:00:32.854Z,10.78
2023-04-29T22:03:01.848Z,10.58
2023-04-29T22:05:28.993Z,10.53
2023-04-29T22:07:58.335Z,10.52
2023-04-29T22:10:25.697Z,10.48
2023-04-29T22:12:52.665Z,10.43
2023-04-29T22:15:28.157Z,10.32
2023-04-29T22:17:56.911Z,10.24
2023-04-29T22:20:25.902Z,10.14
2023-04-29T22:22:53.079Z,9.98
2023-04-29T22:25:21.882Z,9.91
2023-04-29T22:27:49.252Z,9.86
2023-04-29T22:30:17.806Z,9.82
2023-04-29T22:32:45.112Z,9.85
2023-04-29T22:35:12.424Z,9.83
2023-04-29T22:37:41.090Z,9.83
2023-04-29T22:40:09.393Z,9.88
2023-04-29T22:42:36.491Z,9.85
2023-04-29T22:45:04.107Z,9.71
2023-04-29T22:47:31.306Z,9.75
2023-04-29T22:49:58.270Z,9.66
2023-04-29T22:52:27.057Z,9.58
2023-04-29T22:54:55.398Z,9.60
2023-04-29T22:57:22.427Z,9.57
2023-04-29T22:59:53.567Z,9.56
2023-04-29T23:02:20.826Z,9.55
2023-04-29T23:04:48.160Z,9.48
2023-04-29T23:07:15.101Z,9.48
2023-04-29T23:09:42.080Z,9.38
2023-04-29T23:12:10.500Z,9.23
2023-04-29T23:14:37.467Z,9.10
2023-04-29T23:17:04.436Z,9.06
2023-04-29T23:19:31.579Z,9.02
2023-04-29T23:21:58.564Z,8.90
2023-04-29T23:24:25.492Z,8.78
2023-04-29T23:26:52.478Z,8.62
2023-04-29T23:29:20.774Z,8.47
2023-04-29T23:31:48.000Z,8.35
2023-04-29T23:34:16.601Z,8.28
2023-04-29T23:36:43.573Z,8.24
2023-04-29T23:39:10.539Z,8.19
2023-04-29T23:41:37.477Z,8.26
2023-04-29T23:44:04.709Z,8.21
2023-04-29T23:46:33.127Z,8.23
2023-04-29T23:49:00.180Z,8.26
2023-04-29T23:51:27.132Z,8.24
2023-04-29T23:53:54.073Z,8.23
2023-04-29T23:56:20.980Z,8.15
2023-04-29T23:58:47.956Z,8.12
